createdAt,value
2017-07-19T00:00:12.517Z,9.14
2017-07-19T00:02:40.779Z,9.86
2017-07-19T00:05:08.307Z,12.66
2017-07-19T00:07:36.566Z,9.24
2017-07-19T00:10:04.885Z,8.96
2017-07-19T00:12:33.169Z,11.58
2017-07-19T00:15:01.418Z,8.36
2017-07-19T00:17:29.726Z,11.34
2017-07-19T00:19:57.988Z,11.90
2017-07-19T00:22:26.243Z,9.20
2017-07-19T00:24:53.766Z,11.36
2017-07-19T00:27:22.024Z,12.08
2017-07-19T00:29:50.344Z,12.36
2017-07-19T00:32:18.604Z,12.00
2017-07-19T00:34:46.101Z,9.84
2017-07-19T00:37:14.393Z,9.04
2017-07-19T00:39:42.671Z,9.72
2017-07-19T00:42:10.963Z,12.34
2017-07-19T00:44:39.229Z,10.92
2017-07-19T00:47:07.516Z,8.50
2017-07-19T00:49:35.763Z,8.20
2017-07-19T00:52:04.052Z,12.48
2017-07-19T00:54:32.323Z,10.94
2017-07-19T00:57:00.584Z,11.38
2017-07-19T00:59:28.887Z,8.76
2017-07-19T01:01:57.148Z,11.26
2017-07-19T01:04:25.412Z,10.70
2017-07-19T01:06:53.703Z,14.66
2017-07-19T01:09:21.961Z,9.14
2017-07-19T01:11:50.220Z,10.36
2017-07-19T01:14:18.528Z,11.26
2017-07-19T01:16:46.805Z,9.98
2017-07-19T01:19:15.100Z,11.60
2017-07-19T01:21:43.362Z,12.24
2017-07-19T01:24:10.896Z,10.88
2017-07-19T01:26:38.382Z,9.92
2017-07-19T01:29:06.627Z,9.04
2017-07-19T01:31:34.921Z,10.36
2017-07-19T01:34:03.192Z,10.30
2017-07-19T01:36:31.449Z,10.82
2017-07-19T01:38:59.751Z,16.94
2017-07-19T01:41:28.013Z,12.46
2017-07-19T01:43:56.295Z,13.48
2017-07-19T01:46:24.552Z,11.60
2017-07-19T01:48:52.826Z,9.14
2017-07-19T01:51:22.091Z,16.00
2017-07-19T01:53:50.391Z,11.48
2017-07-19T01:56:18.653Z,12.08
2017-07-19T01:58:46.943Z,9.04
2017-07-19T02:01:15.235Z,12.32
2017-07-19T02:03:43.503Z,14.36
2017-07-19T02:06:11.027Z,14.26
2017-07-19T02:08:39.282Z,14.60
2017-07-19T02:11:07.552Z,9.12
2017-07-19T02:13:35.852Z,12.04
2017-07-19T02:16:04.105Z,9.90
2017-07-19T02:18:32.365Z,13.48
2017-07-19T02:21:00.646Z,10.86
2017-07-19T02:23:28.912Z,12.70
2017-07-19T02:25:57.204Z,13.38
2017-07-19T02:28:25.501Z,10.92
2017-07-19T02:30:53.811Z,10.14
2017-07-19T02:33:22.074Z,10.64
2017-07-19T02:35:50.381Z,12.90
2017-07-19T02:38:18.644Z,12.72
2017-07-19T02:40:46.920Z,18.62
2017-07-19T02:43:15.201Z,10.18
2017-07-19T02:45:43.473Z,17.18
2017-07-19T02:48:11.779Z,15.04
2017-07-19T02:50:39.280Z,13.76
2017-07-19T02:53:07.543Z,12.02
2017-07-19T02:55:35.837Z,18.82
2017-07-19T02:58:04.104Z,11.30
2017-07-19T03:00:32.398Z,15.88
2017-07-19T03:03:00.660Z,15.88
2017-07-19T03:05:28.958Z,13.24
2017-07-19T03:07:56.447Z,17.64
2017-07-19T03:10:23.968Z,12.64
2017-07-19T03:12:52.253Z,13.82
2017-07-19T03:15:20.523Z,14.32
2017-07-19T03:17:48.807Z,11.30
2017-07-19T03:20:17.100Z,13.52
2017-07-19T03:22:50.006Z,13.82
2017-07-19T03:25:18.275Z,13.56
2017-07-19T03:27:46.585Z,11.86
2017-07-19T03:30:14.863Z,12.22
2017-07-19T03:32:43.151Z,15.34
2017-07-19T03:35:11.451Z,15.70
2017-07-19T03:37:39.714Z,13.44
2017-07-19T03:40:07.970Z,19.88
2017-07-19T03:42:36.295Z,15.28
2017-07-19T03:45:04.550Z,18.20
2017-07-19T03:47:32.044Z,13.56
2017-07-19T03:50:00.333Z,16.04
2017-07-19T03:52:28.588Z,14.98
2017-07-19T03:54:56.884Z,17.80
2017-07-19T03:57:24.379Z,16.78
2017-07-19T03:59:52.665Z,17.10
2017-07-19T04:02:20.974Z,17.98
2017-07-19T04:04:49.231Z,13.72
2017-07-19T04:07:17.502Z,15.90
2017-07-19T04:09:45.790Z,19.70
2017-07-19T04:12:14.069Z,17.50
2017-07-19T04:14:42.371Z,16.26
2017-07-19T04:17:10.622Z,18.80
2017-07-19T04:19:38.914Z,14.80
2017-07-19T04:22:07.172Z,17.98
2017-07-19T04:24:35.437Z,18.52
2017-07-19T04:27:03.722Z,19.22
2017-07-19T04:29:31.991Z,13.46
2017-07-19T04:32:00.287Z,12.58
2017-07-19T04:34:28.545Z,18.32
2017-07-19T04:36:56.802Z,19.46
2017-07-19T04:39:25.088Z,14.58
2017-07-19T04:41:53.361Z,15.68
2017-07-19T04:44:21.676Z,15.84
2017-07-19T04:46:49.939Z,14.16
2017-07-19T04:49:18.210Z,15.80
2017-07-19T04:51:46.492Z,14.86
2017-07-19T04:54:14.750Z,13.04
2017-07-19T04:56:42.267Z,12.64
2017-07-19T04:59:10.524Z,13.42
2017-07-19T05:01:38.816Z,13.00
2017-07-19T05:04:07.089Z,15.70
2017-07-19T05:06:34.602Z,14.42
2017-07-19T05:09:02.895Z,15.40
2017-07-19T05:11:31.183Z,18.46
2017-07-19T05:13:59.439Z,14.88
2017-07-19T05:16:27.733Z,20.48
2017-07-19T05:18:55.997Z,18.28
2017-07-19T05:21:24.258Z,22.00
2017-07-19T05:23:52.564Z,15.02
2017-07-19T05:26:20.065Z,15.54
2017-07-19T05:28:51.067Z,13.98
2017-07-19T05:31:19.356Z,13.58
2017-07-19T05:33:47.608Z,16.86
2017-07-19T05:36:15.906Z,20.04
2017-07-19T05:38:43.409Z,20.86
2017-07-19T05:41:11.671Z,19.24
2017-07-19T05:43:39.971Z,20.64
2017-07-19T05:46:07.475Z,17.48
2017-07-19T05:48:35.746Z,15.86
2017-07-19T05:51:04.029Z,15.64
2017-07-19T05:53:32.297Z,14.76
2017-07-19T05:56:00.599Z,17.90
2017-07-19T05:58:28.098Z,16.18
2017-07-19T06:00:56.367Z,16.28
2017-07-19T06:03:24.676Z,21.48
2017-07-19T06:05:52.968Z,17.24
2017-07-19T06:08:21.227Z,25.44
2017-07-19T06:10:49.535Z,19.86
2017-07-19T06:13:17.816Z,18.60
2017-07-19T06:15:46.092Z,16.98
2017-07-19T06:18:14.396Z,15.42
2017-07-19T06:20:42.653Z,14.74
2017-07-19T06:23:10.953Z,15.26
2017-07-19T06:25:39.223Z,18.56
2017-07-19T06:28:07.516Z,12.26
2017-07-19T06:30:35.773Z,19.90
2017-07-19T06:33:04.037Z,12.74
2017-07-19T06:35:31.572Z,14.78
2017-07-19T06:37:59.090Z,17.94
2017-07-19T06:40:27.365Z,14.30
2017-07-19T06:42:55.690Z,22.20
2017-07-19T06:45:24.048Z,12.98
2017-07-19T06:47:52.312Z,15.80
2017-07-19T06:50:19.867Z,15.14
2017-07-19T06:52:48.154Z,16.90
2017-07-19T06:55:16.436Z,20.02
2017-07-19T06:57:44.729Z,13.44
2017-07-19T07:00:13.033Z,18.72
2017-07-19T07:02:41.338Z,23.34
2017-07-19T07:05:08.837Z,22.24
2017-07-19T07:07:37.142Z,24.66
2017-07-19T07:10:05.444Z,26.32
2017-07-19T07:12:33.699Z,23.68
2017-07-19T07:15:01.967Z,23.08
2017-07-19T07:17:30.267Z,26.32
2017-07-19T07:19:58.542Z,24.02
2017-07-19T07:22:26.831Z,25.92
2017-07-19T07:24:55.099Z,25.30
2017-07-19T07:27:23.383Z,25.54
2017-07-19T07:29:50.882Z,23.72
2017-07-19T07:32:19.329Z,27.84
2017-07-19T07:34:47.596Z,24.68
2017-07-19T07:37:15.871Z,22.38
2017-07-19T07:39:43.390Z,19.30
2017-07-19T07:42:11.646Z,22.06
2017-07-19T07:44:39.936Z,24.86
2017-07-19T07:47:08.203Z,17.02
2017-07-19T07:49:35.708Z,16.96
2017-07-19T07:52:03.994Z,12.72
2017-07-19T07:54:32.253Z,17.88
2017-07-19T07:57:00.553Z,10.36
2017-07-19T07:59:28.819Z,9.64
2017-07-19T08:01:57.097Z,14.26
2017-07-19T08:04:24.612Z,14.62
2017-07-19T08:06:52.873Z,10.34
2017-07-19T08:09:21.166Z,9.08
2017-07-19T08:11:49.433Z,14.54
2017-07-19T08:14:17.682Z,8.64
2017-07-19T08:16:45.994Z,10.74
2017-07-19T08:19:14.251Z,10.78
2017-07-19T08:21:42.533Z,9.38
2017-07-19T08:24:10.829Z,13.76
2017-07-19T08:26:38.320Z,10.68
2017-07-19T08:29:06.586Z,9.34
2017-07-19T08:31:34.859Z,9.52
2017-07-19T08:34:03.149Z,9.10
2017-07-19T08:36:31.407Z,9.84
2017-07-19T08:38:59.688Z,9.06
2017-07-19T08:41:27.957Z,7.64
2017-07-19T08:43:56.245Z,10.18
2017-07-19T08:46:24.535Z,9.92
2017-07-19T08:48:52.811Z,11.78
2017-07-19T08:51:21.099Z,8.52
2017-07-19T08:53:49.362Z,15.50
2017-07-19T08:56:17.615Z,8.86
2017-07-19T08:58:45.900Z,9.32
2017-07-19T09:01:14.177Z,9.48
2017-07-19T09:03:42.489Z,14.52
2017-07-19T09:06:10.753Z,12.28
2017-07-19T09:08:39.030Z,15.22
2017-07-19T09:11:07.349Z,13.76
2017-07-19T09:13:35.626Z,18.66
2017-07-19T09:16:03.893Z,11.94
2017-07-19T09:18:32.197Z,8.48
2017-07-19T09:20:59.712Z,9.78
2017-07-19T09:23:28.014Z,10.36
2017-07-19T09:26:03.667Z,11.14
2017-07-19T09:28:32.546Z,9.16
2017-07-19T09:31:00.840Z,12.82
2017-07-19T09:33:29.103Z,18.82
2017-07-19T09:35:57.409Z,9.04
2017-07-19T09:38:24.896Z,9.46
2017-07-19T09:40:52.398Z,9.88
2017-07-19T09:43:20.701Z,8.66
2017-07-19T09:45:48.959Z,13.84
2017-07-19T09:48:17.240Z,9.08
2017-07-19T09:50:45.533Z,10.66
2017-07-19T09:53:13.789Z,9.92
2017-07-19T09:55:42.051Z,12.00
2017-07-19T09:58:10.340Z,13.42
2017-07-19T10:00:38.597Z,18.90
2017-07-19T10:03:06.898Z,12.74
2017-07-19T10:05:34.392Z,8.68
2017-07-19T10:08:02.652Z,8.94
2017-07-19T10:10:30.948Z,8.60
2017-07-19T10:12:59.208Z,11.82
2017-07-19T10:15:27.505Z,9.40
2017-07-19T10:17:55.768Z,9.16
2017-07-19T10:20:24.019Z,8.82
2017-07-19T10:22:52.326Z,9.12
2017-07-19T10:25:20.588Z,13.78
2017-07-19T10:27:48.883Z,11.04
2017-07-19T10:30:17.244Z,8.88
2017-07-19T10:32:45.499Z,9.28
2017-07-19T10:35:13.755Z,8.02
2017-07-19T10:37:42.075Z,12.32
2017-07-19T10:40:10.326Z,9.82
2017-07-19T10:42:38.579Z,9.22
2017-07-19T10:45:06.890Z,13.84
2017-07-19T10:47:35.208Z,9.64
2017-07-19T10:50:03.484Z,7.94
2017-07-19T10:52:31.750Z,11.28
2017-07-19T10:55:00.033Z,8.26
2017-07-19T10:57:28.300Z,15.96
2017-07-19T10:59:56.596Z,7.94
2017-07-19T11:02:24.856Z,9.54
2017-07-19T11:04:53.123Z,8.22
2017-07-19T11:07:21.404Z,8.94
2017-07-19T11:09:49.663Z,9.38
2017-07-19T11:12:17.951Z,7.98
2017-07-19T11:14:46.244Z,10.38
2017-07-19T11:17:14.510Z,8.86
2017-07-19T11:19:42.823Z,11.70
2017-07-19T11:22:11.089Z,8.74
2017-07-19T11:24:39.340Z,10.22
2017-07-19T11:27:07.623Z,9.98
2017-07-19T11:29:35.117Z,11.68
2017-07-19T11:32:03.393Z,11.78
2017-07-19T11:34:31.664Z,14.30
2017-07-19T11:36:59.968Z,10.88
2017-07-19T11:39:28.233Z,16.28
2017-07-19T11:41:56.501Z,9.76
2017-07-19T11:44:24.786Z,10.40
2017-07-19T11:46:53.055Z,8.02
2017-07-19T11:49:21.332Z,11.64
2017-07-19T11:51:49.649Z,13.42
2017-07-19T11:54:17.899Z,8.80
2017-07-19T11:56:46.184Z,9.68
2017-07-19T11:59:14.459Z,8.60
2017-07-19T12:01:42.748Z,10.34
2017-07-19T12:04:11.975Z,8.36
2017-07-19T12:06:40.231Z,9.34
2017-07-19T12:09:08.524Z,9.00
2017-07-19T12:11:36.779Z,8.48
2017-07-19T12:14:05.995Z,16.50
2017-07-19T12:16:34.291Z,8.58
2017-07-19T12:19:02.599Z,10.52
2017-07-19T12:21:30.873Z,13.44
2017-07-19T12:23:59.171Z,8.22
2017-07-19T12:26:27.463Z,9.20
2017-07-19T12:28:55.715Z,10.76
2017-07-19T12:31:24.558Z,8.70
2017-07-19T12:33:52.832Z,11.94
2017-07-19T12:36:21.097Z,11.96
2017-07-19T12:38:49.377Z,9.22
2017-07-19T12:41:17.664Z,13.64
2017-07-19T12:43:45.968Z,11.98
2017-07-19T12:46:14.240Z,13.70
2017-07-19T12:48:42.530Z,9.28
2017-07-19T12:51:10.788Z,9.14
2017-07-19T12:53:39.048Z,9.54
2017-07-19T12:56:07.351Z,9.54
2017-07-19T12:58:35.628Z,9.02
2017-07-19T13:01:03.887Z,9.18
2017-07-19T13:03:32.187Z,12.04
2017-07-19T13:05:59.693Z,10.56
2017-07-19T13:08:28.923Z,11.02
2017-07-19T13:10:57.192Z,12.20
2017-07-19T13:13:25.495Z,8.78
2017-07-19T13:15:53.760Z,9.92
2017-07-19T13:18:22.015Z,9.02
2017-07-19T13:20:50.318Z,10.06
2017-07-19T13:23:18.583Z,8.14
2017-07-19T13:25:46.868Z,15.18
2017-07-19T13:28:15.135Z,8.84
2017-07-19T13:30:43.440Z,8.58
2017-07-19T13:33:11.703Z,10.74
2017-07-19T13:35:39.971Z,9.68
2017-07-19T13:38:08.262Z,9.46
2017-07-19T13:40:36.532Z,14.68
2017-07-19T13:43:04.856Z,17.68
2017-07-19T13:45:33.115Z,26.34
2017-07-19T13:48:01.379Z,13.84
2017-07-19T13:50:29.663Z,15.52
2017-07-19T13:52:57.925Z,16.80
2017-07-19T13:55:26.206Z,12.14
2017-07-19T13:57:54.483Z,11.48
2017-07-19T14:00:22.788Z,15.20
2017-07-19T14:02:51.047Z,13.62
2017-07-19T14:05:19.316Z,12.90
2017-07-19T14:07:46.841Z,13.48
2017-07-19T14:10:15.100Z,15.64
2017-07-19T14:12:43.410Z,22.26
2017-07-19T14:15:11.671Z,14.42
2017-07-19T14:17:39.930Z,10.84
2017-07-19T14:20:08.209Z,9.70
2017-07-19T14:22:36.477Z,12.94
2017-07-19T14:25:04.758Z,8.88
2017-07-19T14:27:33.956Z,14.48
2017-07-19T14:30:02.235Z,10.32
2017-07-19T14:32:33.615Z,12.26
2017-07-19T14:35:01.899Z,13.84
2017-07-19T14:37:30.155Z,16.86
2017-07-19T14:39:57.680Z,18.26
2017-07-19T14:42:25.949Z,12.08
2017-07-19T14:44:54.231Z,13.42
2017-07-19T14:47:22.497Z,14.50
2017-07-19T14:49:50.823Z,12.02
2017-07-19T14:52:19.087Z,17.96
2017-07-19T14:54:47.331Z,9.40
2017-07-19T14:57:15.640Z,17.60
2017-07-19T14:59:43.131Z,18.36
2017-07-19T15:02:11.384Z,13.46
2017-07-19T15:04:39.676Z,13.00
2017-07-19T15:07:07.931Z,16.50
2017-07-19T15:09:36.197Z,11.26
2017-07-19T15:12:04.487Z,13.42
2017-07-19T15:14:32.759Z,15.70
2017-07-19T15:17:01.043Z,13.88
2017-07-19T15:19:29.308Z,12.88
2017-07-19T15:21:57.601Z,10.62
2017-07-19T15:24:25.897Z,17.36
2017-07-19T15:26:54.167Z,19.88
2017-07-19T15:29:22.454Z,12.58
2017-07-19T15:31:50.740Z,14.20
2017-07-19T15:34:19.017Z,22.90
2017-07-19T15:36:48.284Z,17.34
2017-07-19T15:39:16.560Z,20.24
2017-07-19T15:41:44.829Z,21.44
2017-07-19T15:44:13.133Z,25.58
2017-07-19T15:46:41.408Z,19.46
2017-07-19T15:49:09.707Z,15.58
2017-07-19T15:51:37.968Z,23.30
2017-07-19T15:54:06.240Z,17.16
2017-07-19T15:56:33.780Z,25.54
2017-07-19T15:59:02.071Z,20.58
2017-07-19T16:01:30.360Z,21.14
2017-07-19T16:03:58.633Z,23.36
2017-07-19T16:06:26.960Z,19.78
2017-07-19T16:08:55.248Z,36.74
2017-07-19T16:11:23.525Z,25.06
2017-07-19T16:13:51.820Z,31.70
2017-07-19T16:16:20.092Z,33.44
2017-07-19T16:18:48.373Z,34.64
2017-07-19T16:21:16.679Z,28.92
2017-07-19T16:23:44.963Z,34.36
2017-07-19T16:26:13.275Z,38.26
2017-07-19T16:28:41.560Z,38.48
2017-07-19T16:31:09.837Z,28.94
2017-07-19T16:33:38.119Z,40.46
2017-07-19T16:36:06.386Z,38.14
2017-07-19T16:38:34.703Z,41.04
2017-07-19T16:41:02.973Z,42.60
2017-07-19T16:43:31.245Z,39.92
2017-07-19T16:45:59.555Z,48.10
2017-07-19T16:48:27.820Z,43.48
2017-07-19T16:50:56.113Z,37.92
2017-07-19T16:53:24.397Z,34.92
2017-07-19T16:55:52.709Z,35.88
2017-07-19T16:58:20.976Z,30.52
2017-07-19T17:00:48.480Z,29.16
2017-07-19T17:03:16.814Z,27.88
2017-07-19T17:05:45.087Z,18.24
2017-07-19T17:08:13.385Z,22.82
2017-07-19T17:10:40.881Z,15.58
2017-07-19T17:13:09.145Z,17.24
2017-07-19T17:15:37.439Z,19.12
2017-07-19T17:18:05.706Z,17.14
2017-07-19T17:20:33.993Z,16.46
2017-07-19T17:23:02.247Z,16.70
2017-07-19T17:25:30.549Z,12.96
2017-07-19T17:27:58.821Z,16.14
2017-07-19T17:30:27.126Z,16.56
2017-07-19T17:32:55.401Z,20.32
2017-07-19T17:35:23.691Z,16.78
2017-07-19T17:37:51.991Z,23.58
2017-07-19T17:40:20.261Z,19.76
2017-07-19T17:42:48.541Z,20.44
2017-07-19T17:45:16.863Z,17.82
2017-07-19T17:47:45.136Z,17.72
2017-07-19T17:50:13.411Z,16.04
2017-07-19T17:52:41.707Z,22.53
2017-07-19T17:55:09.992Z,22.14
2017-07-19T17:57:38.290Z,18.64
2017-07-19T18:00:06.552Z,19.56
2017-07-19T18:02:34.851Z,16.94
2017-07-19T18:05:03.125Z,17.06
2017-07-19T18:07:31.432Z,12.22
2017-07-19T18:09:59.703Z,20.26
2017-07-19T18:12:28.015Z,16.84
2017-07-19T18:14:56.284Z,10.88
2017-07-19T18:17:24.565Z,14.22
2017-07-19T18:19:52.849Z,16.60
2017-07-19T18:22:21.123Z,17.58
2017-07-19T18:24:49.431Z,18.90
2017-07-19T18:27:17.691Z,15.50
2017-07-19T18:29:45.997Z,13.50
2017-07-19T18:32:14.299Z,15.58
2017-07-19T18:34:42.572Z,11.46
2017-07-19T18:37:10.888Z,11.88
2017-07-19T18:39:39.175Z,15.58
2017-07-19T18:42:07.474Z,18.40
2017-07-19T18:44:35.736Z,15.40
2017-07-19T18:47:04.036Z,12.64
2017-07-19T18:49:32.300Z,10.54
2017-07-19T18:52:00.608Z,13.54
2017-07-19T18:54:29.827Z,14.08
2017-07-19T18:56:58.127Z,21.70
2017-07-19T18:59:26.399Z,20.72
2017-07-19T19:01:54.687Z,13.34
2017-07-19T19:04:22.963Z,11.68
2017-07-19T19:06:51.254Z,15.82
2017-07-19T19:09:19.552Z,17.14
2017-07-19T19:11:47.832Z,15.40
2017-07-19T19:14:16.135Z,25.36
2017-07-19T19:16:44.391Z,19.84
2017-07-19T19:19:12.655Z,14.80
2017-07-19T19:21:40.956Z,16.30
2017-07-19T19:24:09.218Z,14.18
2017-07-19T19:26:36.724Z,19.14
2017-07-19T19:29:05.019Z,26.72
2017-07-19T19:31:33.291Z,19.58
2017-07-19T19:34:00.827Z,15.16
2017-07-19T19:36:29.103Z,18.12
2017-07-19T19:38:57.391Z,13.78
2017-07-19T19:41:25.665Z,20.88
2017-07-19T19:43:53.954Z,12.56
2017-07-19T19:46:22.211Z,13.26
2017-07-19T19:48:50.497Z,13.12
2017-07-19T19:51:18.764Z,16.64
2017-07-19T19:53:47.073Z,23.14
2017-07-19T19:56:15.347Z,15.84
2017-07-19T19:58:43.643Z,12.52
2017-07-19T20:01:11.928Z,13.88
2017-07-19T20:03:40.207Z,18.72
2017-07-19T20:06:08.505Z,14.38
2017-07-19T20:08:36.776Z,13.98
2017-07-19T20:11:05.067Z,21.30
2017-07-19T20:13:33.356Z,19.30
2017-07-19T20:16:01.691Z,15.58
2017-07-19T20:18:29.943Z,14.74
2017-07-19T20:20:58.216Z,10.80
2017-07-19T20:23:26.500Z,10.80
2017-07-19T20:25:54.763Z,17.20
2017-07-19T20:28:23.053Z,18.92
2017-07-19T20:30:51.324Z,12.06
2017-07-19T20:33:19.592Z,16.52
2017-07-19T20:35:47.895Z,15.80
2017-07-19T20:38:16.165Z,14.62
2017-07-19T20:40:44.428Z,14.34
2017-07-19T20:43:12.729Z,15.38
2017-07-19T20:45:40.989Z,11.86
2017-07-19T20:48:09.262Z,14.74
2017-07-19T20:50:37.571Z,14.10
2017-07-19T20:53:05.847Z,13.84
2017-07-19T20:55:34.110Z,14.92
2017-07-19T20:58:02.407Z,20.00
2017-07-19T21:00:30.668Z,13.00
2017-07-19T21:02:58.936Z,14.92
2017-07-19T21:05:27.235Z,14.40
2017-07-19T21:07:55.531Z,11.68
2017-07-19T21:10:23.859Z,13.28
2017-07-19T21:12:52.175Z,19.22
2017-07-19T21:15:20.496Z,13.34
2017-07-19T21:17:48.805Z,14.28
2017-07-19T21:20:17.168Z,15.74
2017-07-19T21:22:45.466Z,12.22
2017-07-19T21:25:13.801Z,14.82
2017-07-19T21:27:42.105Z,14.30
2017-07-19T21:30:10.411Z,15.68
2017-07-19T21:32:38.769Z,14.64
2017-07-19T21:35:07.073Z,15.62
2017-07-19T21:37:36.394Z,15.40
2017-07-19T21:40:04.693Z,13.02
2017-07-19T21:42:33.004Z,18.42
2017-07-19T21:45:01.326Z,14.48
2017-07-19T21:47:29.648Z,16.50
2017-07-19T21:49:57.985Z,12.74
2017-07-19T21:52:26.301Z,18.54
2017-07-19T21:54:54.604Z,16.84
2017-07-19T21:57:22.941Z,15.58
2017-07-19T21:59:51.242Z,16.52
2017-07-19T22:02:19.580Z,16.08
2017-07-19T22:04:47.125Z,18.32
2017-07-19T22:07:15.427Z,10.08
2017-07-19T22:09:43.753Z,15.24
2017-07-19T22:12:12.077Z,11.02
2017-07-19T22:14:40.377Z,14.44
2017-07-19T22:17:08.703Z,28.88
2017-07-19T22:19:37.040Z,13.50
2017-07-19T22:22:05.359Z,12.44
2017-07-19T22:24:34.594Z,10.56
2017-07-19T22:27:02.929Z,8.98
2017-07-19T22:29:31.247Z,13.88
2017-07-19T22:31:59.577Z,16.96
2017-07-19T22:34:27.915Z,13.82
2017-07-19T22:36:56.218Z,11.78
2017-07-19T22:39:24.523Z,12.00
2017-07-19T22:41:52.861Z,10.40
2017-07-19T22:44:21.174Z,14.42
2017-07-19T22:46:49.544Z,19.18
2017-07-19T22:49:17.856Z,12.40
2017-07-19T22:51:46.184Z,14.34
2017-07-19T22:54:14.523Z,11.14
2017-07-19T22:56:42.856Z,21.36
2017-07-19T22:59:11.155Z,20.72
2017-07-19T23:01:39.488Z,19.90
2017-07-19T23:04:07.023Z,19.66
2017-07-19T23:06:35.365Z,26.08
2017-07-19T23:09:02.909Z,18.50
2017-07-19T23:11:31.205Z,14.84
2017-07-19T23:13:59.551Z,11.18
2017-07-19T23:16:27.868Z,18.18
2017-07-19T23:18:56.202Z,13.00
2017-07-19T23:21:24.542Z,12.48
2017-07-19T23:23:52.848Z,11.98
2017-07-19T23:26:21.151Z,10.88
2017-07-19T23:28:49.482Z,14.40
2017-07-19T23:31:17.785Z,12.06
2017-07-19T23:33:46.126Z,11.90
2017-07-19T23:36:14.441Z,15.30
2017-07-19T23:38:42.766Z,13.68
2017-07-19T23:41:11.056Z,16.78
2017-07-19T23:43:39.406Z,11.20
2017-07-19T23:46:07.710Z,10.02
2017-07-19T23:48:36.021Z,12.00
2017-07-19T23:51:04.346Z,14.10
2017-07-19T23:53:32.645Z,14.62
2017-07-19T23:56:00.977Z,11.94
2017-07-19T23:58:28.511Z,10.22
